Time;durP1;ratioP1;P1;durP2;ratioP2;P2;SDS_P1;SDS_P2;PMS_P1;PMS_P2;Temp;Humidity;BMP_temperature;BMP_pressure;BME280_temperature;BME280_humidity;BME280_pressure;Samples;Min_cycle;Max_cycle;Signal;HPM_P1;HPM_P2
2022/01/17 00:00:58;;;;;;;96.80;58.03;;;;;;;4.68;100.00;102947.53;6503440;23;20004;-79
2022/01/17 00:03:30;;;;;;;97.15;58.22;;;;;;;4.70;100.00;102948.47;6503483;23;20004;-78
2022/01/17 00:06:01;;;;;;;91.37;56.47;;;;;;;4.69;100.00;102950.19;6504138;23;20134;-80
2022/01/17 00:08:33;;;;;;;91.40;53.63;;;;;;;4.70;100.00;102959.72;6507776;23;20083;-80
2022/01/17 00:11:04;;;;;;;90.53;58.13;;;;;;;4.75;100.00;102975.44;6503441;23;20015;-79
2022/01/17 00:13:38;;;;;;;91.80;53.70;;;;;;;4.72;100.00;102971.00;6503638;23;20429;-72
2022/01/17 00:16:14;;;;;;;84.68;52.25;;;;;;;4.75;100.00;102975.44;6502980;23;20349;-81
2022/01/17 00:21:18;;;;;;;90.22;53.83;;;;;;;4.76;100.00;102977.19;6513993;23;20015;-80
2022/01/17 00:23:49;;;;;;;89.70;53.07;;;;;;;4.75;100.00;102981.47;6503881;23;20384;-79
2022/01/17 00:26:20;;;;;;;88.43;52.00;;;;;;;4.74;100.00;102982.28;6504261;23;20001;-80
2022/01/17 00:28:52;;;;;;;91.97;51.97;;;;;;;4.72;100.00;102983.91;6475481;23;20012;-80
2022/01/17 00:31:23;;;;;;;76.90;48.57;;;;;;;4.75;100.00;102985.75;6503452;23;20003;-81
2022/01/17 00:33:54;;;;;;;85.83;48.87;;;;;;;4.72;100.00;102986.50;6504032;23;20008;-75
2022/01/17 00:36:26;;;;;;;83.87;48.27;;;;;;;4.72;100.00;102976.16;6503509;23;20013;-80
2022/01/17 00:38:57;;;;;;;71.60;46.97;;;;;;;4.71;100.00;102966.63;6502892;23;20004;-77
2022/01/17 00:41:28;;;;;;;78.47;45.57;;;;;;;4.71;100.00;102963.16;6504022;23;20371;-78
2022/01/17 00:44:00;;;;;;;71.70;43.00;;;;;;;4.72;100.00;102967.53;6475937;23;20012;-74
2022/01/17 00:46:31;;;;;;;74.23;44.37;;;;;;;4.71;100.00;102974.38;6503173;23;20004;-80
2022/01/17 00:49:04;;;;;;;76.57;46.60;;;;;;;4.69;100.00;102981.19;6502682;23;20050;-79
2022/01/17 00:51:35;;;;;;;77.30;46.58;;;;;;;4.68;100.00;102978.53;6503774;23;20019;-77
2022/01/17 00:54:07;;;;;;;75.70;46.20;;;;;;;4.70;100.00;102982.06;6503431;23;20039;-78
2022/01/17 00:56:38;;;;;;;73.20;43.00;;;;;;;4.73;100.00;102985.69;6504028;23;20050;-79
2022/01/17 00:59:11;;;;;;;72.10;42.37;;;;;;;4.70;100.00;102982.97;6502863;23;20004;-76
2022/01/17 01:01:42;;;;;;;63.45;44.17;;;;;;;4.71;100.00;102982.13;6503049;23;20008;-80
2022/01/17 01:04:13;;;;;;;72.87;44.57;;;;;;;4.68;100.00;102984.56;6503429;23;20438;-79
2022/01/17 01:06:45;;;;;;;68.33;42.20;;;;;;;4.71;100.00;102983.84;6503386;23;20004;-81
2022/01/17 01:09:16;;;;;;;69.07;43.53;;;;;;;4.70;100.00;102982.97;6503382;23;20035;-79
2022/01/17 01:11:48;;;;;;;72.10;43.33;;;;;;;4.69;100.00;102994.09;6505382;23;20058;-76
2022/01/17 01:14:20;;;;;;;68.22;42.78;;;;;;;4.69;100.00;103004.44;6504686;23;20373;-75
2022/01/17 01:16:54;;;;;;;61.93;39.77;;;;;;;4.70;100.00;103005.31;6504666;23;20000;-79
2022/01/17 01:19:28;;;;;;;67.55;39.30;;;;;;;4.72;100.00;103006.28;6505077;23;20310;-78
2022/01/17 01:27:54;;;;;;;60.03;38.92;;;;;;;4.71;100.00;103002.78;6504451;23;20042;-72
2022/01/17 01:30:28;;;;;;;66.35;39.63;;;;;;;4.71;100.00;103002.78;6504665;23;20062;-75
2022/01/17 01:33:00;;;;;;;63.42;38.40;;;;;;;4.70;100.00;102988.13;6504957;23;20004;-78
2022/01/17 01:35:33;;;;;;;63.43;38.70;;;;;;;4.71;100.00;102983.84;6505192;23;20042;-77
2022/01/17 01:38:05;;;;;;;59.78;38.15;;;;;;;4.70;100.00;102990.72;6504948;23;20367;-79
2022/01/17 01:40:36;;;;;;;62.17;37.07;;;;;;;4.70;100.00;102982.06;6505436;23;20074;-79
2022/01/17 01:43:08;;;;;;;59.90;36.23;;;;;;;4.61;100.00;102987.69;6504797;23;20465;-75
2022/01/17 01:45:39;;;;;;;63.73;38.47;;;;;;;4.56;100.00;102991.75;6504442;23;20004;-72
2022/01/17 01:48:12;;;;;;;58.27;35.80;;;;;;;4.46;100.00;102998.19;6504346;23;20008;-72
2022/01/17 01:50:43;;;;;;;57.97;36.17;;;;;;;4.42;100.00;103013.47;6504541;23;20080;-79
2022/01/17 01:53:14;;;;;;;52.70;34.17;;;;;;;4.38;100.00;103015.88;6477654;23;20008;-78
2022/01/17 01:55:46;;;;;;;56.63;32.07;;;;;;;4.35;100.00;103020.03;6477114;23;20487;-73
2022/01/17 01:58:19;;;;;;;54.83;34.87;;;;;;;4.31;100.00;103018.09;6504550;23;20004;-78
2022/01/17 02:00:51;;;;;;;57.30;30.70;;;;;;;4.27;100.00;103011.03;6504912;23;20079;-80
2022/01/17 02:03:23;;;;;;;53.23;30.33;;;;;;;4.19;100.00;102998.59;6505129;23;20035;-79
2022/01/17 02:05:54;;;;;;;55.17;29.87;;;;;;;4.13;100.00;103003.47;6504846;23;20243;-80
2022/01/17 02:08:25;;;;;;;47.97;27.77;;;;;;;3.98;100.00;103008.75;6505001;23;20430;-81
2022/01/17 02:10:58;;;;;;;45.50;29.23;;;;;;;3.96;100.00;103012.97;6504670;23;20012;-80
2022/01/17 02:13:29;;;;;;;55.00;29.83;;;;;;;3.90;100.00;103006.63;6504447;23;20034;-80
2022/01/17 02:16:06;;;;;;;55.07;31.40;;;;;;;3.88;100.00;103015.94;6504717;23;19996;-79
2022/01/17 02:18:40;;;;;;;49.33;29.00;;;;;;;3.74;100.00;103007.53;6504406;23;20005;-79
2022/01/17 02:23:46;;;;;;;54.33;30.10;;;;;;;3.69;100.00;103014.13;6504342;23;20008;-80
2022/01/17 02:26:18;;;;;;;54.78;30.30;;;;;;;3.73;100.00;103013.47;6504737;23;20322;-79
2022/01/17 02:28:55;;;;;;;50.22;29.17;;;;;;;3.61;100.00;103003.44;6504189;23;20480;-72
2022/01/17 02:31:27;;;;;;;56.40;30.05;;;;;;;3.56;100.00;102995.44;6504638;23;20090;-79
2022/01/17 02:33:59;;;;;;;50.10;27.30;;;;;;;3.44;100.00;103002.53;6503939;23;20024;-72
2022/01/17 02:36:31;;;;;;;51.23;29.80;;;;;;;3.43;100.00;102995.59;6504382;23;20058;-80
2022/01/17 02:39:04;;;;;;;57.72;30.88;;;;;;;3.40;100.00;103000.63;6503934;23;20231;-79
2022/01/17 02:41:39;;;;;;;53.08;29.88;;;;;;;3.38;100.00;103007.38;6508370;23;20043;-74
2022/01/17 02:44:11;;;;;;;56.50;33.60;;;;;;;3.39;100.00;103006.56;6504042;23;20008;-78
2022/01/17 02:46:43;;;;;;;65.65;32.83;;;;;;;3.36;100.00;103004.72;6503735;23;20046;-79
2022/01/17 02:49:14;;;;;;;67.83;34.10;;;;;;;3.32;100.00;103005.38;6476027;23;20087;-74
2022/01/17 02:51:48;;;;;;;61.90;34.57;;;;;;;3.25;100.00;103006.75;6504130;23;20386;-78
2022/01/17 02:54:19;;;;;;;67.90;35.83;;;;;;;3.23;100.00;102997.16;6504142;23;20020;-79
2022/01/17 02:56:51;;;;;;;71.67;35.23;;;;;;;3.23;100.00;103008.34;6504302;23;20007;-77
2022/01/17 02:59:22;;;;;;;81.53;36.47;;;;;;;3.19;100.00;103005.50;6476378;23;20511;-74
2022/01/17 03:01:55;;;;;;;70.30;36.50;;;;;;;3.11;100.00;103007.69;6477276;23;20011;-78
2022/01/17 03:04:28;;;;;;;82.32;38.80;;;;;;;3.11;100.00;103002.53;6503957;23;20019;-78
2022/01/17 03:06:59;;;;;;;80.05;38.15;;;;;;;3.11;100.00;103002.53;6476675;23;20004;-72
2022/01/17 03:09:40;;;;;;;84.03;38.67;;;;;;;3.04;100.00;102995.28;6504038;23;20012;-80
2022/01/17 03:12:12;;;;;;;78.75;36.97;;;;;;;3.00;100.00;103003.66;6504016;23;20010;-79
2022/01/17 03:14:43;;;;;;;73.07;37.23;;;;;;;2.97;100.00;102993.19;6504028;23;20075;-78
2022/01/17 03:17:14;;;;;;;82.07;38.83;;;;;;;2.97;100.00;102990.59;6503791;23;20079;-79
2022/01/17 03:19:46;;;;;;;92.03;40.90;;;;;;;3.01;100.00;102995.09;6503391;23;20004;-79
2022/01/17 03:22:17;;;;;;;86.70;40.43;;;;;;;2.97;100.00;103003.50;6503457;23;20373;-74
2022/01/17 03:24:49;;;;;;;87.00;41.87;;;;;;;2.99;100.00;102994.16;6504077;22;20008;-77
2022/01/17 03:27:20;;;;;;;95.83;43.13;;;;;;;2.95;100.00;102985.38;6503549;23;20012;-75
2022/01/17 03:29:51;;;;;;;81.40;42.93;;;;;;;2.97;100.00;102985.44;6503770;23;20004;-79
2022/01/17 03:32:23;;;;;;;93.97;45.23;;;;;;;3.02;100.00;102994.31;6503037;23;20008;-72
2022/01/17 03:34:55;;;;;;;100.33;42.80;;;;;;;3.00;100.00;102988.19;6502818;23;20032;-77
2022/01/17 03:37:27;;;;;;;91.18;44.05;;;;;;;3.02;100.00;102992.59;6503913;23;20000;-79
2022/01/17 03:39:58;;;;;;;100.23;45.03;;;;;;;3.00;100.00;102998.50;6503234;23;20376;-79
2022/01/17 03:42:30;;;;;;;88.43;42.77;;;;;;;3.00;100.00;102999.38;6502631;22;20008;-77
2022/01/17 03:45:07;;;;;;;93.33;45.17;;;;;;;3.07;100.00;103005.75;6503374;23;20083;-73
2022/01/17 03:47:40;;;;;;;91.18;43.78;;;;;;;3.11;100.00;103005.13;6503257;23;20000;-79
2022/01/17 03:50:15;;;;;;;91.05;44.50;;;;;;;3.19;100.00;103002.94;6503549;23;20007;-76
2022/01/17 03:52:47;;;;;;;83.90;43.40;;;;;;;3.25;100.00;103006.75;6503542;23;20008;-77
2022/01/17 03:55:20;;;;;;;79.43;40.00;;;;;;;3.26;100.00;103007.63;6503598;23;20004;-73
2022/01/17 03:57:53;;;;;;;79.75;38.72;;;;;;;3.18;100.00;102998.59;6503318;23;20331;-78
2022/01/17 04:00:31;;;;;;;66.47;35.30;;;;;;;3.17;100.00;102994.25;6503603;23;20040;-75
2022/01/17 04:03:02;;;;;;;77.03;37.03;;;;;;;3.12;100.00;102998.25;6503381;23;20000;-79
2022/01/17 04:05:34;;;;;;;63.33;31.50;;;;;;;3.10;100.00;102998.19;6502778;23;20434;-76
2022/01/17 04:08:06;;;;;;;58.87;30.50;;;;;;;3.09;100.00;103004.13;6503466;23;20041;-75
2022/01/17 04:10:39;;;;;;;52.40;29.75;;;;;;;3.09;100.00;103009.28;6503125;23;20011;-80
2022/01/17 04:13:10;;;;;;;55.85;27.85;;;;;;;3.04;100.00;103008.16;6503177;23;20101;-78
2022/01/17 04:15:42;;;;;;;55.07;26.33;;;;;;;2.98;100.00;103008.72;6503157;23;20027;-79
2022/01/17 04:18:15;;;;;;;53.07;26.33;;;;;;;2.97;100.00;103014.66;6503243;23;20041;-74
2022/01/17 04:20:46;;;;;;;;;;;;;;;2.97;100.00;103008.66;6503310;23;20066;-77
2022/01/17 04:23:18;;;;;;;44.20;25.75;;;;;;;2.99;100.00;103010.47;6503002;23;19907;-80
2022/01/17 04:25:49;;;;;;;46.20;24.40;;;;;;;3.00;100.00;103019.13;6503215;23;20004;-77
2022/01/17 04:28:21;;;;;;;45.20;24.53;;;;;;;2.98;100.00;103020.69;6502581;23;20019;-75
2022/01/17 04:30:52;;;;;;;47.47;24.60;;;;;;;2.97;100.00;103022.41;6503081;23;20015;-76
2022/01/17 04:33:23;;;;;;;43.33;23.40;;;;;;;2.97;100.00;103024.09;6503113;23;20032;-76
2022/01/17 04:35:55;;;;;;;39.60;23.40;;;;;;;2.94;100.00;103029.09;6502841;23;20026;-79
2022/01/17 04:38:26;;;;;;;44.17;22.87;;;;;;;2.91;100.00;103029.78;6503027;23;20418;-78
2022/01/17 04:41:12;;;;;;;44.77;21.93;;;;;;;2.85;100.00;103035.50;6503088;23;20076;-78
2022/01/17 04:43:56;;;;;;;43.75;22.00;;;;;;;2.82;100.00;103029.28;6502791;23;20120;-78
2022/01/17 04:46:27;;;;;;;50.22;25.45;;;;;;;2.72;100.00;103021.06;6505165;23;20007;-78
2022/01/17 04:48:58;;;;;;;49.13;23.90;;;;;;;2.71;100.00;103014.13;6505453;23;20004;-76
2022/01/17 04:51:30;;;;;;;52.23;29.33;;;;;;;2.76;100.00;103024.69;6504890;23;20008;-77
2022/01/17 04:54:37;;;;;;;46.77;24.70;;;;;;;2.67;100.00;103019.94;6505613;23;20004;-79
2022/01/17 04:57:05;;;;;;;52.67;26.48;;;;;;;2.70;100.00;103016.63;6504667;22;20016;-78
2022/01/17 04:59:39;;;;;;;52.47;27.50;;;;;;;2.70;100.00;103019.19;6505361;23;20380;-78
2022/01/17 05:02:11;;;;;;;52.50;27.13;;;;;;;2.69;100.00;103022.59;6505241;23;20385;-78
2022/01/17 05:04:45;;;;;;;59.57;28.40;;;;;;;2.71;100.00;103034.72;6478408;23;20031;-79
2022/01/17 05:07:17;;;;;;;48.53;26.25;;;;;;;2.70;100.00;103034.66;6504951;23;20016;-77
2022/01/17 05:09:48;;;;;;;50.80;27.63;;;;;;;2.73;100.00;103037.41;6504922;23;20000;-72
2022/01/17 05:12:19;;;;;;;60.00;28.47;;;;;;;2.73;100.00;103030.53;6504841;23;20043;-75
2022/01/17 05:14:52;;;;;;;49.77;26.63;;;;;;;2.72;100.00;103046.81;6504971;23;20019;-76
2022/01/17 05:19:57;;;;;;;58.07;29.43;;;;;;;2.70;100.00;103056.13;6515604;23;20438;-76
2022/01/17 05:22:32;;;;;;;49.83;27.70;;;;;;;2.74;100.00;103059.78;6477729;23;20004;-77
2022/01/17 05:25:07;;;;;;;50.42;26.05;;;;;;;2.68;100.00;103057.75;6504517;23;20099;-72
2022/01/17 05:27:39;;;;;;;51.05;27.75;;;;;;;2.66;100.00;103055.91;6504586;23;20013;-78
2022/01/17 05:30:14;;;;;;;45.37;28.00;;;;;;;2.68;100.00;103062.00;6506853;23;20023;-80
2022/01/17 05:32:46;;;;;;;58.70;27.20;;;;;;;2.61;100.00;103055.63;6481158;23;20425;-77
2022/01/17 05:35:19;;;;;;;56.15;28.08;;;;;;;2.61;100.00;103063.34;6506154;23;20826;-80
2022/01/17 05:37:51;;;;;;;51.38;27.35;;;;;;;2.51;100.00;103064.53;6504779;23;20011;-74
2022/01/17 05:40:22;;;;;;;50.67;28.70;;;;;;;2.49;100.00;103068.69;6506788;23;20007;-79
2022/01/17 05:42:54;;;;;;;51.83;27.83;;;;;;;2.36;100.00;103069.66;6482588;23;20000;-79
2022/01/17 05:45:25;;;;;;;63.50;28.23;;;;;;;2.34;100.00;103070.38;6507928;23;20042;-79
2022/01/17 05:47:57;;;;;;;61.93;30.93;;;;;;;2.44;100.00;103072.69;6506608;23;20398;-74
2022/01/17 05:50:28;;;;;;;60.10;32.33;;;;;;;2.43;100.00;103064.88;6505526;23;20008;-75
2022/01/17 05:52:59;;;;;;;57.57;32.37;;;;;;;2.37;100.00;103061.16;6505790;23;20430;-79
2022/01/17 05:55:31;;;;;;;55.23;31.73;;;;;;;2.36;100.00;103063.63;6505841;23;19996;-75
2022/01/17 05:58:03;;;;;;;56.00;32.23;;;;;;;2.29;100.00;103059.81;6506083;23;20006;-79
2022/01/17 06:00:35;;;;;;;65.07;34.20;;;;;;;2.25;100.00;103064.69;6505344;23;20028;-78
2022/01/17 06:03:06;;;;;;;68.10;35.50;;;;;;;2.29;100.00;103076.97;6505378;23;20012;-79
2022/01/17 06:05:37;;;;;;;77.93;36.27;;;;;;;2.26;100.00;103076.78;6507107;23;19996;-76
2022/01/17 06:08:09;;;;;;;66.33;34.77;;;;;;;2.17;100.00;103066.81;6507026;23;20026;-78
2022/01/17 06:10:40;;;;;;;70.63;35.50;;;;;;;2.18;100.00;103071.19;6507037;23;20027;-79
2022/01/17 06:13:11;;;;;;;69.67;36.13;;;;;;;2.13;100.00;103063.19;6506931;23;20000;-79
2022/01/17 06:15:43;;;;;;;74.77;39.80;;;;;;;2.17;100.00;103075.44;6477654;23;20031;-79
2022/01/17 06:18:14;;;;;;;78.70;40.13;;;;;;;2.12;100.00;103073.38;6505501;23;20336;-77
2022/01/17 06:20:46;;;;;;;74.37;36.63;;;;;;;2.07;100.00;103079.97;6504398;23;20008;-79
2022/01/17 06:23:17;;;;;;;76.97;39.07;;;;;;;2.10;100.00;103069.84;6504066;23;20004;-80
2022/01/17 06:25:48;;;;;;;79.63;39.17;;;;;;;2.10;100.00;103080.13;6503900;23;20004;-81
2022/01/17 06:28:20;;;;;;;82.03;42.60;;;;;;;2.08;100.00;103082.63;6476919;23;20023;-79
2022/01/17 06:30:52;;;;;;;84.63;42.00;;;;;;;2.08;100.00;103085.19;6504116;23;20012;-74
2022/01/17 06:33:23;;;;;;;86.20;42.57;;;;;;;2.10;100.00;103083.59;6504336;23;20438;-79
2022/01/17 06:35:54;;;;;;;82.97;42.13;;;;;;;2.08;100.00;103066.31;6503768;23;20000;-79
2022/01/17 06:38:26;;;;;;;92.40;46.80;;;;;;;2.13;100.00;103073.47;6503992;23;20067;-79
2022/01/17 06:40:57;;;;;;;94.30;46.80;;;;;;;2.16;100.00;103083.06;6504088;23;20031;-80
2022/01/17 06:43:28;;;;;;;100.73;50.33;;;;;;;2.29;100.00;103098.44;6503961;23;20307;-76
2022/01/17 06:46:00;;;;;;;101.20;48.20;;;;;;;2.30;100.00;103109.59;6504008;23;20008;-76
2022/01/17 06:48:31;;;;;;;102.80;52.63;;;;;;;2.33;100.00;103096.91;6503891;23;20008;-79
2022/01/17 06:51:03;;;;;;;99.97;48.47;;;;;;;2.31;100.00;103099.41;6504001;23;20028;-80
2022/01/17 06:53:35;;;;;;;97.40;47.50;;;;;;;2.31;100.00;103101.97;6503653;23;20000;-75
2022/01/17 06:56:06;;;;;;;95.43;50.17;;;;;;;2.37;100.00;103106.59;6503767;23;20004;-75
2022/01/17 06:58:38;;;;;;;94.30;50.00;;;;;;;2.43;100.00;103126.66;6503530;23;20071;-72
2022/01/17 07:01:09;;;;;;;103.53;50.33;;;;;;;2.36;100.00;103122.84;6503855;23;20004;-74
2022/01/17 07:03:42;;;;;;;95.47;49.23;;;;;;;2.32;100.00;103138.91;6503419;23;20058;-78
2022/01/17 07:06:13;;;;;;;86.82;45.20;;;;;;;2.29;100.00;103134.47;6504013;23;20004;-78
2022/01/17 07:08:45;;;;;;;94.93;50.73;;;;;;;2.25;100.00;103153.06;6503610;23;20008;-79
2022/01/17 07:11:16;;;;;;;86.43;46.30;;;;;;;2.17;100.00;103160.38;6503967;23;20322;-79
2022/01/17 07:13:49;;;;;;;92.30;46.40;;;;;;;2.18;100.00;103138.97;6503604;23;20003;-77
2022/01/17 07:16:23;;;;;;;95.20;45.65;;;;;;;2.08;100.00;103118.63;6504107;23;20024;-78
2022/01/17 07:18:54;;;;;;;102.03;46.83;;;;;;;2.11;100.00;103113.69;6503288;23;20027;-74
2022/01/17 07:21:25;;;;;;;93.13;46.97;;;;;;;2.11;100.00;103110.19;6503624;23;20007;-77
2022/01/17 07:23:57;;;;;;;102.37;47.23;;;;;;;2.16;100.00;103096.81;6502763;23;20005;-76
2022/01/17 07:26:28;;;;;;;90.77;48.67;;;;;;;2.19;100.00;103085.84;6503727;23;20000;-78
2022/01/17 07:29:00;;;;;;;84.80;49.37;;;;;;;2.31;100.00;103080.50;6503077;23;20052;-79
2022/01/17 07:31:34;;;;;;;89.13;47.75;;;;;;;2.29;100.00;103087.25;6506709;23;20421;-78
2022/01/17 07:34:07;;;;;;;101.40;48.53;;;;;;;2.32;100.00;103097.72;6503837;23;20007;-76
2022/01/17 07:36:39;;;;;;;98.30;50.45;;;;;;;2.43;100.00;103101.81;6503939;23;20074;-77
2022/01/17 07:39:11;;;;;;;92.43;49.07;;;;;;;2.40;100.00;103113.59;6503375;23;20008;-80
2022/01/17 07:41:43;;;;;;;86.03;47.80;;;;;;;2.49;100.00;103121.88;6504198;23;20429;-77
2022/01/17 07:44:19;;;;;;;91.30;50.97;;;;;;;2.58;100.00;103127.56;6503204;23;20095;-77
2022/01/17 07:47:00;;;;;;;96.72;48.58;;;;;;;2.51;100.00;103126.31;6503292;23;20223;-78
2022/01/17 07:49:32;;;;;;;86.88;45.25;;;;;;;2.53;100.00;103128.97;6503239;23;20004;-78
2022/01/17 07:52:05;;;;;;;92.05;49.13;;;;;;;2.57;100.00;103132.63;6503107;23;20000;-74
2022/01/17 07:54:43;;;;;;;;;;;;;;;2.52;100.00;103142.63;6503844;23;20008;-78
2022/01/17 07:57:14;;;;;;;105.07;46.95;;;;;;;2.53;100.00;103145.31;6503598;23;20229;-78
2022/01/17 07:59:46;;;;;;;94.97;50.80;;;;;;;2.63;100.00;103151.00;6502830;23;20198;-79
2022/01/17 08:02:17;;;;;;;98.87;51.47;;;;;;;2.69;100.00;103152.22;6502948;23;20004;-79
2022/01/17 08:04:48;;;;;;;94.03;47.83;;;;;;;2.70;100.00;103163.41;6503328;23;20000;-76
2022/01/17 08:07:20;;;;;;;98.00;50.83;;;;;;;2.71;100.00;103170.34;6503171;23;20039;-79
2022/01/17 08:09:51;;;;;;;91.00;52.00;;;;;;;2.74;100.00;103175.69;6502895;23;20028;-79
2022/01/17 08:12:23;;;;;;;105.30;53.67;;;;;;;2.79;100.00;103174.25;6475975;23;20000;-76
2022/01/17 08:14:57;;;;;;;93.40;50.20;;;;;;;2.82;100.00;103189.91;6502589;23;20071;-79
2022/01/17 08:17:29;;;;;;;89.78;49.88;;;;;;;2.84;100.00;103182.25;6502699;23;20083;-77
2022/01/17 08:20:00;;;;;;;83.17;49.63;;;;;;;2.84;100.00;103171.94;6502570;23;20437;-76
2022/01/17 08:22:32;;;;;;;90.87;49.47;;;;;;;2.82;100.00;103170.94;6502654;23;20475;-77
2022/01/17 08:25:04;;;;;;;87.47;45.03;;;;;;;2.86;100.00;103171.22;6502448;23;20008;-73
2022/01/17 08:27:36;;;;;;;97.47;48.92;;;;;;;2.88;100.00;103171.31;6502156;23;20008;-74
2022/01/17 08:30:08;;;;;;;88.83;49.87;;;;;;;3.00;100.00;103168.56;6502553;23;20012;-74
2022/01/17 08:32:39;;;;;;;87.25;48.33;;;;;;;3.09;100.00;103169.06;6502751;23;20138;-80
2022/01/17 08:35:11;;;;;;;85.37;48.57;;;;;;;3.20;100.00;103178.28;6503076;23;20027;-78
2022/01/17 08:37:42;;;;;;;76.27;44.80;;;;;;;3.29;100.00;103180.50;6502831;23;20008;-79
2022/01/17 08:40:15;;;;;;;70.20;41.80;;;;;;;3.32;100.00;103180.69;6502607;23;20377;-74
2022/01/17 08:42:47;;;;;;;62.42;38.97;;;;;;;3.39;100.00;103179.31;6502962;23;20004;-79
2022/01/17 08:45:21;;;;;;;63.67;39.00;;;;;;;3.43;100.00;103171.84;6475707;23;20095;-75
2022/01/17 08:47:53;;;;;;;66.32;37.97;;;;;;;3.48;100.00;103159.22;6503053;23;20011;-80
2022/01/17 08:50:25;;;;;;;67.77;38.50;;;;;;;3.54;100.00;103163.78;6502992;23;20325;-72
2022/01/17 08:52:56;;;;;;;56.47;36.10;;;;;;;3.61;100.00;103161.63;6503116;23;20012;-73
2022/01/17 08:55:28;;;;;;;53.47;34.23;;;;;;;3.68;100.00;103167.13;6502000;23;20004;-79
2022/01/17 08:58:01;;;;;;;58.93;32.53;;;;;;;3.73;100.00;103165.69;6502948;23;20410;-80
2022/01/17 09:00:32;;;;;;;;;;;;;;;3.79;100.00;103177.22;6503792;23;20075;-74
2022/01/17 09:03:04;;;;;;;57.85;30.27;;;;;;;3.81;100.00;103179.88;6475313;23;19958;-79
2022/01/17 09:05:36;;;;;;;49.22;29.85;;;;;;;3.89;100.00;103173.44;6502964;23;20465;-80
2022/01/17 09:08:11;;;;;;;43.67;29.15;;;;;;;3.95;100.00;103172.88;6502629;23;20066;-79
2022/01/17 09:10:42;;;;;;;48.80;30.42;;;;;;;3.98;100.00;103179.09;6501870;23;20015;-75
2022/01/17 09:13:14;;;;;;;46.47;25.57;;;;;;;4.07;100.00;103181.25;6502783;23;20008;-78
2022/01/17 09:15:46;;;;;;;44.53;26.83;;;;;;;4.12;100.00;103189.22;6503031;23;20008;-79
2022/01/17 09:18:19;;;;;;;44.00;24.87;;;;;;;4.16;100.00;103184.31;6502933;23;20004;-74
2022/01/17 09:20:51;;;;;;;44.78;23.88;;;;;;;4.21;100.00;103207.78;6502486;23;19996;-74
2022/01/17 09:23:23;;;;;;;38.70;22.45;;;;;;;4.28;100.00;103225.41;6502132;23;20008;-76
2022/01/17 09:25:54;;;;;;;40.53;23.00;;;;;;;4.31;100.00;103212.63;6502192;23;20495;-79
2022/01/17 09:28:26;;;;;;;35.23;23.07;;;;;;;4.37;100.00;103225.84;6475587;23;20026;-76
2022/01/17 09:30:57;;;;;;;30.83;20.10;;;;;;;4.42;100.00;103227.81;6503060;23;20065;-76
2022/01/17 09:33:29;;;;;;;41.97;20.67;;;;;;;4.55;100.00;103235.38;6504012;22;20000;-78
2022/01/17 09:36:00;;;;;;;35.67;20.20;;;;;;;4.67;100.00;103229.94;6504410;23;20000;-77
2022/01/17 09:38:32;;;;;;;31.27;19.07;;;;;;;4.72;100.00;103224.19;6503930;23;20011;-78
2022/01/17 09:41:03;;;;;;;34.87;17.13;;;;;;;4.74;100.00;103225.16;6504286;23;20441;-76
2022/01/17 09:43:36;;;;;;;36.10;17.33;;;;;;;4.77;100.00;103214.09;6504247;23;20071;-77
2022/01/17 09:46:09;;;;;;;36.05;17.00;;;;;;;4.77;100.00;103226.16;6504309;23;20010;-76
2022/01/17 09:48:46;;;;;;;;;;;;;;;4.80;100.00;103239.19;6504528;23;20099;-77
2022/01/17 09:54:10;;;;;;;35.53;16.20;;;;;;;4.84;100.00;103242.00;6504024;23;20012;-78
2022/01/17 09:56:42;;;;;;;38.40;15.87;;;;;;;4.88;100.00;103251.72;6504065;23;20004;-80
2022/01/17 09:59:13;;;;;;;32.00;15.03;;;;;;;4.88;100.00;103248.25;6504159;23;20075;-77
2022/01/17 10:01:45;;;;;;;29.40;13.97;;;;;;;4.89;100.00;103269.00;6504204;23;20004;-78
2022/01/17 10:04:19;;;;;;;29.07;14.03;;;;;;;4.93;100.00;103264.88;6503917;23;20013;-78
2022/01/17 10:06:55;;;;;;;32.03;13.30;;;;;;;4.92;100.00;103248.44;6503899;23;20011;-78
2022/01/17 10:09:28;;;;;;;33.47;14.50;;;;;;;4.93;100.00;103265.75;6504398;23;20004;-76
2022/01/17 10:12:03;;;;;;;;;;;;;;;4.98;100.00;103267.69;6504071;23;20007;-77
2022/01/17 10:14:39;;;;;;;35.83;14.32;;;;;;;4.95;100.00;103258.06;6503766;23;19982;-78
2022/01/17 10:17:13;;;;;;;31.92;12.60;;;;;;;4.95;100.00;103273.56;6504340;23;20452;-74
2022/01/17 10:19:59;;;;;;;35.78;14.38;;;;;;;4.99;100.00;103264.28;6503855;23;20107;-79
2022/01/17 10:22:42;;;;;;;30.10;11.68;;;;;;;5.02;100.00;103254.97;6503906;23;20000;-75
2022/01/17 10:25:28;;;;;;;31.65;12.55;;;;;;;5.04;100.00;103261.13;6503787;23;20270;-79
2022/01/17 10:29:01;;;;;;;30.63;12.23;;;;;;;5.03;100.00;103272.25;6504464;23;20315;-78
2022/01/17 10:37:13;;;;;;;25.38;10.50;;;;;;;5.08;100.00;103275.97;6503905;23;20012;-76
2022/01/17 10:39:57;;;;;;;26.30;11.30;;;;;;;5.12;100.00;103277.03;6504175;23;20008;-75
2022/01/17 10:42:34;;;;;;;28.73;11.13;;;;;;;5.13;100.00;103276.19;6503491;23;20000;-81
2022/01/17 10:45:09;;;;;;;34.67;12.40;;;;;;;5.15;100.00;103278.84;6503746;23;20064;-76
2022/01/17 10:47:44;;;;;;;30.30;10.32;;;;;;;5.15;100.00;103281.44;6503417;23;20349;-78
2022/01/17 10:50:20;;;;;;;31.55;10.73;;;;;;;5.21;100.00;103285.22;6503624;23;20058;-78
2022/01/17 10:52:54;;;;;;;33.85;13.23;;;;;;;5.24;100.00;103274.16;6503946;23;20008;-74
2022/01/17 10:55:32;;;;;;;28.95;10.90;;;;;;;5.31;100.00;103291.72;6503856;23;20004;-79
2022/01/17 10:58:10;;;;;;;30.40;10.82;;;;;;;5.33;100.00;103307.31;6503511;23;20004;-77
2022/01/17 11:00:46;;;;;;;29.75;10.50;;;;;;;5.30;100.00;103303.78;6503600;23;20491;-74
2022/01/17 11:03:22;;;;;;;26.10;9.70;;;;;;;5.36;100.00;103312.66;6503497;23;20275;-77
2022/01/17 11:05:55;;;;;;;29.20;10.43;;;;;;;5.41;100.00;103309.50;6503724;23;20373;-79
2022/01/17 11:08:29;;;;;;;32.20;10.40;;;;;;;5.47;100.00;103308.88;6503452;23;20015;-79
2022/01/17 11:11:05;;;;;;;27.83;10.07;;;;;;;5.48;100.00;103316.72;6502924;23;20008;-79
2022/01/17 11:13:39;;;;;;;29.13;10.98;;;;;;;5.54;100.00;103320.41;6502991;23;20012;-79
2022/01/17 11:16:14;;;;;;;34.38;8.23;;;;;;;5.58;100.00;103317.19;6503200;23;20004;-79
2022/01/17 11:18:57;;;;;;;37.13;10.20;;;;;;;5.59;100.00;103326.72;6503522;22;20011;-76
2022/01/17 11:21:40;;;;;;;30.77;9.27;;;;;;;5.63;100.00;103318.28;6478614;23;20058;-78
2022/01/17 11:24:12;;;;;;;30.88;9.25;;;;;;;5.66;99.72;103308.09;6505205;23;20046;-76
2022/01/17 11:26:43;;;;;;;30.50;10.00;;;;;;;5.69;99.44;103303.06;6503821;23;20008;-77
2022/01/17 11:29:16;;;;;;;27.40;7.67;;;;;;;5.74;99.36;103296.38;6476717;23;20087;-77
2022/01/17 11:31:47;;;;;;;;;;;;;;;5.78;98.78;103292.25;6503804;23;20456;-77
2022/01/17 11:34:19;;;;;;;30.42;8.90;;;;;;;5.77;99.13;103291.38;6503639;23;19907;-79
2022/01/17 11:36:53;;;;;;;29.10;9.50;;;;;;;5.77;98.97;103286.19;6503802;23;20334;-77
2022/01/17 11:39:25;;;;;;;28.85;9.30;;;;;;;5.84;99.34;103280.50;6477485;23;20000;-76
2022/01/17 11:41:57;;;;;;;26.90;8.97;;;;;;;5.90;99.20;103279.00;6504027;23;20425;-79
2022/01/17 11:44:33;;;;;;;36.07;9.20;;;;;;;5.92;98.85;103285.13;6502862;23;20074;-78
2022/01/17 11:47:05;;;;;;;41.72;9.32;;;;;;;5.91;98.42;103284.25;6503538;23;20389;-79
2022/01/17 11:49:40;;;;;;;25.87;8.37;;;;;;;5.94;98.51;103301.63;6503728;23;20008;-77
2022/01/17 11:52:31;;;;;;;29.15;9.73;;;;;;;6.00;98.74;103313.19;6474711;23;20083;-74
2022/01/17 11:55:03;;;;;;;30.60;8.32;;;;;;;6.05;97.97;103323.75;6502804;23;20454;-76
2022/01/17 11:57:34;;;;;;;26.57;7.70;;;;;;;6.15;97.93;103325.06;6502723;23;20091;-79
2022/01/17 12:00:08;;;;;;;32.07;9.23;;;;;;;6.20;97.56;103324.47;6502674;23;20035;-79